Time;durP1;ratioP1;P1;durP2;ratioP2;P2;SDS_P1;SDS_P2;PMS_P1;PMS_P2;Temp;Humidity;BMP_temperature;BMP_pressure;BME280_temperature;BME280_humidity;BME280_pressure;Samples;Min_cycle;Max_cycle;Signal;HPM_P1;HPM_P2
2021/07/14 03:38:05;;;;;;;409.50;395.67;;;17.80;99.90;;;;;;6246510;22;20450;-83
2021/07/14 03:40:33;;;;;;;390.20;377.00;;;17.80;99.90;;;;;;6256794;23;20802;-78
2021/07/14 03:43:02;;;;;;;396.07;382.67;;;17.70;99.90;;;;;;6245150;23;20485;-78
2021/07/14 03:45:29;;;;;;;360.67;348.47;;;17.80;99.90;;;;;;6246472;23;20482;-81
2021/07/14 03:47:57;;;;;;;359.17;346.97;;;17.80;99.90;;;;;;6246515;23;20887;-81
2021/07/14 03:50:25;;;;;;;407.60;393.63;;;17.70;99.90;;;;;;6246464;23;20410;-81
2021/07/14 03:52:53;;;;;;;347.13;335.30;;;17.70;99.90;;;;;;6256341;23;20790;-82
2021/07/14 03:55:57;;;;;;;374.17;361.50;;;17.70;99.90;;;;;;6246752;23;20744;-84
2021/07/14 04:02:27;;;;;;;;;;;;;;;;;;;;;
2021/07/14 04:13:47;;;;;;;328.33;317.13;;;17.70;99.90;;;;;;6286140;22;20576;-84
2021/07/14 04:16:29;;;;;;;339.83;328.40;;;17.80;99.90;;;;;;6277191;22;20502;-84
2021/07/14 04:19:13;;;;;;;403.67;389.97;;;17.80;99.90;;;;;;6286971;22;20411;-82
2021/07/14 04:21:50;;;;;;;351.37;339.60;;;17.90;99.90;;;;;;6277058;22;20444;-82
2021/07/14 04:24:22;;;;;;;396.40;382.97;;;17.90;99.90;;;;;;6276359;22;20434;-82
2021/07/14 04:26:58;;;;;;;350.63;338.77;;;17.90;99.90;;;;;;6275271;22;20468;-82
2021/07/14 04:29:27;;;;;;;400.57;386.93;;;18.00;99.90;;;;;;6276613;22;20444;-81
2021/07/14 04:38:33;;;;;;;407.23;393.50;;;18.00;99.90;;;;;;6028201;23;20764;-79
2021/07/14 04:41:00;;;;;;;352.10;340.17;;;17.90;99.90;;;;;;6156302;23;20451;-80
2021/07/14 04:43:27;;;;;;;381.67;368.73;;;18.10;99.90;;;;;;6244732;23;20463;-80
2021/07/14 04:45:55;;;;;;;346.20;334.40;;;17.90;99.90;;;;;;6245921;23;20934;-80
2021/07/14 04:48:22;;;;;;;375.03;362.33;;;17.90;99.90;;;;;;6246175;23;20428;-79
2021/07/14 04:50:49;;;;;;;341.47;329.93;;;18.00;99.90;;;;;;6245966;23;20404;-79
2021/07/14 04:53:16;;;;;;;325.93;314.83;;;17.90;99.90;;;;;;6256145;23;20774;-79
2021/07/14 04:55:43;;;;;;;366.73;354.23;;;17.90;99.90;;;;;;6245681;23;20398;-78
2021/07/14 04:58:12;;;;;;;363.43;351.13;;;17.90;99.90;;;;;;6244666;23;20483;-79
2021/07/14 05:00:39;;;;;;;333.53;322.13;;;17.80;99.90;;;;;;6255871;23;20442;-80
2021/07/14 05:03:07;;;;;;;356.00;343.83;;;17.80;99.90;;;;;;6246041;23;20725;-79
2021/07/14 05:05:34;;;;;;;375.83;363.07;;;17.90;99.90;;;;;;6246098;23;20482;-79
2021/07/14 05:08:01;;;;;;;327.60;316.50;;;17.90;99.90;;;;;;6245990;23;20856;-80
2021/07/14 05:10:30;;;;;;;345.00;333.13;;;18.00;99.90;;;;;;6246070;23;20435;-79
2021/07/14 05:12:58;;;;;;;295.90;285.60;;;17.90;99.90;;;;;;6244527;23;20410;-79
2021/07/14 05:15:25;;;;;;;325.93;314.63;;;18.00;99.90;;;;;;6255858;23;20431;-79
2021/07/14 05:17:52;;;;;;;312.33;301.53;;;18.00;99.90;;;;;;6245981;23;20487;-80
2021/07/14 05:20:20;;;;;;;326.93;315.70;;;18.10;99.90;;;;;;6245640;23;20482;-79
2021/07/14 05:22:48;;;;;;;312.43;301.63;;;18.20;99.90;;;;;;6255771;23;20427;-80
2021/07/14 05:25:15;;;;;;;317.37;306.43;;;18.20;99.90;;;;;;6245760;23;20439;-79
2021/07/14 05:27:42;;;;;;;372.10;359.33;;;18.20;99.90;;;;;;6244143;23;20426;-80
2021/07/14 05:30:11;;;;;;;326.90;315.60;;;18.30;99.90;;;;;;6246046;23;20438;-79
2021/07/14 05:40:28;;;;;;;404.40;390.50;;;18.50;99.90;;;;;;6115946;23;20443;-87
2021/07/14 05:42:55;;;;;;;418.60;404.13;;;18.40;99.90;;;;;;6123841;23;20485;-80
2021/07/14 06:59:02;;;;;;;312.10;301.10;;;19.10;99.90;;;;;;5985758;23;20411;-87
2021/07/14 07:58:25;;;;;;;426.83;411.43;;;18.90;99.90;;;;;;6259819;22;20450;-81
2021/07/14 08:03:41;;;;;;;425.50;410.20;;;19.00;99.90;;;;;;6307637;22;20831;-85
2021/07/14 08:06:55;;;;;;;425.03;409.83;;;19.00;99.90;;;;;;6307459;22;20511;-88
2021/07/14 08:10:04;;;;;;;;;;;;;;;;;;;;;
2021/07/14 08:15:55;;;;;;;407.70;393.23;;;18.80;99.90;;;;;;6125866;22;20458;-82
2021/07/14 08:18:22;;;;;;;442.87;426.83;;;19.10;99.90;;;;;;6308083;22;20904;-81
2021/07/14 08:20:49;;;;;;;451.60;435.20;;;19.10;99.90;;;;;;6307703;22;20436;-82
2021/07/14 08:23:24;;;;;;;456.57;439.93;;;19.20;99.90;;;;;;6318534;22;20454;-85
2021/07/14 08:25:57;;;;;;;466.63;449.30;;;19.00;99.90;;;;;;6317973;22;20917;-84
2021/07/14 08:35:45;;;;;;;472.37;454.97;;;19.20;99.90;;;;;;6103368;23;20408;-88
2021/07/14 08:38:12;;;;;;;444.80;428.90;;;19.10;99.90;;;;;;6188300;23;20439;-84
2021/07/14 09:20:12;;;;;;;443.60;427.60;;;18.70;99.90;;;;;;6265774;22;20453;-80
2021/07/14 12:33:27;;;;;;;453.60;435.80;;;21.70;99.90;;;;;;6234861;22;20453;-81
2021/07/14 14:36:34;;;;;;;525.27;503.40;;;20.60;99.90;;;;;;6161474;23;20496;-91
2021/07/14 14:45:50;;;;;;;529.20;507.33;;;20.80;99.90;;;;;;6198256;22;20458;-90
2021/07/14 14:51:32;;;;;;;544.03;521.00;;;20.10;99.90;;;;;;5979851;24;20419;-91
2021/07/14 14:54:08;;;;;;;543.47;520.67;;;20.20;99.90;;;;;;5905956;24;20903;-83
2021/07/14 15:11:00;;;;;;;;;;;;;;;;;;;;;
2021/07/14 15:17:10;;;;;;;;;;;;;;;;;;;;;
2021/07/14 15:23:39;;;;;;;513.57;493.13;;;20.00;99.90;;;;;;6008782;23;20410;-89
2021/07/14 15:30:08;;;;;;;;;;;;;;;;;;;;;
2021/07/14 18:24:07;;;;;;;;;;;;;;;;;;;;;
2021/07/14 18:30:31;;;;;;;448.90;431.10;;;19.90;99.90;;;;;;6032482;23;20421;-87
2021/07/14 18:56:13;;;;;;;;;;;;;;;;;;;;;
2021/07/14 19:02:32;;;;;;;486.73;467.73;;;18.40;99.90;;;;;;6108534;23;20754;-89
2021/07/14 19:15:30;;;;;;;;;;;;;;;;;;;;;
2021/07/14 19:46:32;;;;;;;;;;;;;;;;;;;;;
2021/07/14 19:49:02;;;;;;;524.37;501.77;;;18.10;99.90;;;;;;5897857;24;20418;-89
2021/07/14 19:55:10;;;;;;;521.63;499.70;;;17.60;99.90;;;;;;6072354;23;20423;-93
2021/07/14 19:58:10;;;;;;;;;;;;;;;;;;;;;
2021/07/14 20:04:20;;;;;;;535.33;512.33;;;17.50;99.90;;;;;;6004410;23;20775;-91
2021/07/14 20:07:07;;;;;;;517.67;495.73;;;17.40;99.90;;;;;;6018606;23;20430;-90
2021/07/14 20:09:43;;;;;;;527.97;505.33;;;17.30;99.90;;;;;;6017492;23;20926;-93
2021/07/14 20:15:01;;;;;;;535.00;512.10;;;17.40;99.90;;;;;;6036287;23;20426;-91
2021/07/14 20:17:38;;;;;;;534.00;511.23;;;17.20;99.90;;;;;;6192528;23;20412;-93
2021/07/14 20:20:39;;;;;;;527.77;506.03;;;17.20;99.90;;;;;;6226016;23;20727;-91
2021/07/14 20:23:20;;;;;;;519.93;498.80;;;17.30;99.90;;;;;;6242684;23;20504;-90
2021/07/14 20:26:13;;;;;;;530.97;509.10;;;17.10;99.90;;;;;;6245970;23;20435;-90
2021/07/14 20:29:08;;;;;;;524.50;502.73;;;17.20;99.90;;;;;;6242727;23;20789;-93
2021/07/14 20:31:56;;;;;;;525.13;503.53;;;17.30;99.90;;;;;;6256689;23;20419;-93
2021/07/14 20:34:28;;;;;;;523.47;502.23;;;17.20;99.90;;;;;;6256080;23;20465;-93
2021/07/14 20:37:10;;;;;;;;;;;;;;;;;;;;;
2021/07/14 20:39:46;;;;;;;508.93;488.43;;;17.20;99.90;;;;;;6256555;23;20403;-91
2021/07/14 20:42:37;;;;;;;518.83;497.80;;;17.30;99.90;;;;;;6254820;23;20462;-92
2021/07/14 20:45:41;;;;;;;;;;;;;;;;;;;;;
2021/07/14 20:48:46;;;;;;;535.70;513.43;;;17.30;99.90;;;;;;6244675;23;20965;-92
2021/07/14 20:51:36;;;;;;;517.47;496.60;;;17.20;99.90;;;;;;6243621;23;20415;-92
2021/07/14 20:54:12;;;;;;;525.80;504.13;;;17.10;99.90;;;;;;6256316;23;20431;-92
2021/07/14 20:56:57;;;;;;;516.90;495.80;;;16.80;99.90;;;;;;6255799;23;20403;-92
2021/07/14 20:59:58;;;;;;;516.13;495.03;;;16.90;99.90;;;;;;6255483;23;20461;-93
2021/07/14 21:02:44;;;;;;;521.83;500.73;;;16.80;99.90;;;;;;6255737;23;20744;-93
2021/07/14 21:05:17;;;;;;;511.63;490.90;;;16.80;99.90;;;;;;6245289;23;21004;-92
2021/07/14 21:08:13;;;;;;;;;;;;;;;;;;;;;
2021/07/14 21:10:42;;;;;;;516.87;495.93;;;16.80;99.90;;;;;;6255755;23;20392;-92
2021/07/14 21:13:19;;;;;;;528.70;506.70;;;16.60;99.90;;;;;;6254839;23;20414;-93
2021/07/14 21:15:49;;;;;;;517.20;496.17;;;16.50;99.90;;;;;;6255675;23;20907;-92
2021/07/14 21:18:43;;;;;;;;;;;;;;;;;;;;;
2021/07/14 21:21:20;;;;;;;536.07;513.60;;;16.60;99.90;;;;;;6218588;23;20411;-90
2021/07/14 21:24:07;;;;;;;536.50;513.80;;;16.60;99.90;;;;;;6255327;23;20829;-91
2021/07/14 21:26:40;;;;;;;525.47;503.40;;;16.50;99.90;;;;;;6255761;23;20960;-89
2021/07/14 21:29:12;;;;;;;540.47;516.90;;;16.50;99.90;;;;;;6255414;23;20415;-93
2021/07/14 21:31:47;;;;;;;550.23;525.97;;;16.50;99.90;;;;;;6245430;23;20399;-90
2021/07/14 21:34:16;;;;;;;547.10;523.23;;;16.40;99.90;;;;;;6255522;23;20403;-92
2021/07/14 21:36:45;;;;;;;549.27;525.23;;;16.40;99.90;;;;;;6255999;23;20403;-92
2021/07/14 21:39:21;;;;;;;549.23;525.30;;;16.50;99.90;;;;;;6255554;23;20466;-92
2021/07/14 21:41:48;;;;;;;551.73;527.90;;;16.50;99.90;;;;;;6176158;23;20782;-93
2021/07/14 21:44:32;;;;;;;;;;;;;;;;;;;;;
2021/07/14 21:47:02;;;;;;;552.13;528.10;;;16.40;99.90;;;;;;6255638;23;20759;-92
2021/07/14 21:49:39;;;;;;;552.43;528.43;;;16.40;99.90;;;;;;6255520;23;20909;-92
2021/07/14 21:52:28;;;;;;;;;;;;;;;;;;;;;
2021/07/14 21:55:07;;;;;;;547.50;524.13;;;16.40;99.90;;;;;;6256127;23;20418;-92
2021/07/14 21:57:56;;;;;;;551.53;527.60;;;16.30;99.90;;;;;;6254437;23;20411;-93
2021/07/14 22:00:54;;;;;;;555.43;531.00;;;16.50;99.90;;;;;;6255336;23;20442;-90
2021/07/14 22:03:25;;;;;;;557.80;533.33;;;16.40;99.90;;;;;;6132659;23;20498;-92
2021/07/14 22:06:16;;;;;;;535.90;513.00;;;16.50;99.90;;;;;;6209119;23;20450;-93
2021/07/14 22:08:43;;;;;;;549.57;525.43;;;16.50;99.90;;;;;;6255756;23;20417;-90
2021/07/14 22:11:28;;;;;;;537.53;514.37;;;16.50;99.90;;;;;;6255834;23;20445;-94
2021/07/14 22:14:19;;;;;;;546.70;522.93;;;16.30;99.90;;;;;;6216936;23;20469;-94
2021/07/14 22:16:52;;;;;;;551.50;527.43;;;16.40;99.90;;;;;;6254817;23;20419;-91
2021/07/14 22:19:44;;;;;;;545.93;522.27;;;16.50;99.90;;;;;;6255509;23;20411;-91
2021/07/14 22:22:20;;;;;;;547.17;523.10;;;16.40;99.90;;;;;;6256500;23;20442;-93
2021/07/14 22:24:58;;;;;;;534.07;511.40;;;16.40;99.90;;;;;;6257281;23;20787;-94
2021/07/14 22:27:35;;;;;;;556.57;531.97;;;16.40;99.90;;;;;;6256404;23;20427;-94
2021/07/14 22:30:12;;;;;;;556.03;531.53;;;16.40;99.90;;;;;;6257654;23;20443;-93
2021/07/14 22:32:45;;;;;;;540.67;517.73;;;16.30;99.90;;;;;;6257834;23;20715;-93
2021/07/14 22:35:23;;;;;;;539.50;516.40;;;16.30;99.90;;;;;;6246859;23;20415;-92
2021/07/14 22:37:59;;;;;;;560.53;535.50;;;16.30;99.90;;;;;;6257264;23;20469;-92
2021/07/14 22:43:48;;;;;;;570.47;544.33;;;16.40;99.90;;;;;;6253948;23;20743;-93
2021/07/14 22:46:22;;;;;;;576.10;549.67;;;16.40;99.90;;;;;;6257233;23;20466;-90
2021/07/14 22:48:54;;;;;;;579.33;552.63;;;16.40;99.90;;;;;;6257548;23;20430;-93
2021/07/14 22:51:27;;;;;;;588.67;561.50;;;16.40;99.90;;;;;;6247315;23;20400;-94
2021/07/14 22:54:10;;;;;;;553.17;529.20;;;16.40;99.90;;;;;;6247067;23;20949;-91
2021/07/14 22:59:31;;;;;;;557.57;533.20;;;16.30;99.90;;;;;;6243233;23;20427;-94
2021/07/14 23:02:06;;;;;;;587.50;560.10;;;16.30;99.90;;;;;;6257036;23;20918;-92
2021/07/14 23:04:35;;;;;;;594.83;567.13;;;16.20;99.90;;;;;;6257300;23;20438;-91
2021/07/14 23:07:12;;;;;;;558.47;533.80;;;16.20;99.90;;;;;;6256848;23;20530;-94
2021/07/14 23:09:50;;;;;;;561.47;536.50;;;16.00;99.90;;;;;;6257444;23;20712;-93
2021/07/14 23:12:23;;;;;;;564.43;539.33;;;16.10;99.90;;;;;;6246199;23;20395;-93
2021/07/14 23:15:02;;;;;;;582.60;555.77;;;16.00;99.90;;;;;;6256787;23;20495;-93
2021/07/14 23:17:34;;;;;;;607.23;578.93;;;15.90;99.90;;;;;;6256891;23;20407;-93
2021/07/14 23:20:11;;;;;;;585.83;559.03;;;15.90;99.90;;;;;;6256727;23;20418;-93
2021/07/14 23:22:43;;;;;;;590.00;563.33;;;15.80;99.90;;;;;;6256861;23;20497;-92
2021/07/14 23:25:26;;;;;;;596.97;569.77;;;15.80;99.90;;;;;;6246546;23;20498;-92
2021/07/14 23:28:14;;;;;;;607.80;579.97;;;15.70;99.90;;;;;;6255759;23;20533;-93
2021/07/14 23:30:53;;;;;;;552.33;528.63;;;15.60;99.90;;;;;;6257108;23;20410;-92
2021/07/14 23:33:26;;;;;;;548.97;525.47;;;15.50;99.90;;;;;;6256834;23;20782;-87
2021/07/14 23:35:58;;;;;;;542.77;519.93;;;15.40;99.90;;;;;;6257011;23;20403;-93
2021/07/14 23:38:48;;;;;;;540.00;517.30;;;15.50;99.90;;;;;;6246566;23;20405;-90
2021/07/14 23:44:04;;;;;;;541.30;518.50;;;15.30;99.90;;;;;;6243990;23;20734;-90
2021/07/14 23:46:40;;;;;;;541.57;518.97;;;15.20;99.90;;;;;;6256987;23;20478;-94
2021/07/14 23:49:19;;;;;;;538.37;516.17;;;15.20;99.90;;;;;;6256900;23;20416;-92
2021/07/14 23:51:50;;;;;;;541.93;519.33;;;15.20;99.90;;;;;;6256947;23;20503;-94
2021/07/14 23:54:25;;;;;;;537.67;515.47;;;14.90;99.90;;;;;;6246768;23;20404;-93
2021/07/14 23:56:53;;;;;;;540.23;517.83;;;15.10;99.90;;;;;;6245364;23;20895;-94
2021/07/14 23:59:28;;;;;;;542.47;519.93;;;15.40;99.90;;;;;;6256587;23;20485;-92
